createdAt,value
2019-05-11T00:00:52.651Z,9.77
2019-05-11T00:03:29.150Z,9.37
2019-05-11T00:06:01.434Z,9.10
2019-05-11T00:08:32.250Z,9.60
2019-05-11T00:11:02.583Z,9.33
2019-05-11T00:13:35.935Z,9.23
2019-05-11T00:16:07.243Z,8.70
2019-05-11T00:18:39.005Z,9.87
2019-05-11T00:21:09.830Z,9.10
2019-05-11T00:23:40.986Z,9.27
2019-05-11T00:26:15.129Z,9.40
2019-05-11T00:28:48.846Z,9.83
2019-05-11T00:31:19.428Z,9.53
2019-05-11T00:33:51.429Z,9.33
2019-05-11T00:36:21.778Z,9.60
2019-05-11T00:38:57.131Z,9.97
2019-05-11T00:41:27.683Z,9.87
2019-05-11T00:44:01.496Z,9.57
2019-05-11T00:46:35.879Z,9.17
2019-05-11T00:49:10.252Z,9.50
2019-05-11T00:51:44.122Z,9.77
2019-05-11T00:54:16.799Z,9.40
2019-05-11T00:56:51.434Z,10.10
2019-05-11T00:59:23.769Z,9.63
2019-05-11T01:01:55.944Z,9.90
2019-05-11T01:04:28.203Z,9.77
2019-05-11T01:07:00.310Z,10.07
2019-05-11T01:09:34.434Z,10.33
2019-05-11T01:12:06.674Z,10.23
2019-05-11T01:14:37.111Z,9.90
2019-05-11T01:17:10.900Z,9.40
2019-05-11T01:19:41.417Z,9.80
2019-05-11T01:22:17.880Z,9.50
2019-05-11T01:24:48.675Z,9.60
2019-05-11T01:27:22.762Z,10.07
2019-05-11T01:29:53.717Z,10.13
2019-05-11T01:32:24.323Z,9.73
2019-05-11T01:34:57.929Z,9.77
2019-05-11T01:37:30.334Z,10.00
2019-05-11T01:40:05.129Z,10.13
2019-05-11T01:42:36.286Z,8.97
2019-05-11T01:45:07.132Z,9.50
2019-05-11T01:47:38.974Z,9.63
2019-05-11T01:50:09.528Z,10.00
2019-05-11T01:52:40.950Z,9.50
2019-05-11T01:55:11.354Z,10.10
2019-05-11T01:57:42.038Z,9.97
2019-05-11T02:00:15.535Z,9.73
2019-05-11T02:02:46.169Z,10.03
2019-05-11T02:05:31.201Z,9.70
2019-05-11T02:08:04.781Z,9.53
2019-05-11T02:10:35.044Z,9.43
2019-05-11T02:13:06.125Z,9.50
2019-05-11T02:15:36.483Z,9.87
2019-05-11T02:18:12.515Z,9.40
2019-05-11T02:20:42.991Z,9.40
2019-05-11T02:23:13.758Z,10.03
2019-05-11T02:25:45.898Z,9.70
2019-05-11T02:28:16.714Z,10.00
2019-05-11T02:30:48.191Z,10.23
2019-05-11T02:33:21.635Z,9.40
2019-05-11T02:35:53.142Z,9.87
2019-05-11T02:38:24.611Z,9.53
2019-05-11T02:40:54.927Z,10.00
2019-05-11T02:43:31.076Z,9.97
2019-05-11T02:46:05.599Z,9.80
2019-05-11T02:48:41.469Z,9.87
2019-05-11T02:51:13.794Z,9.37
2019-05-11T02:53:48.665Z,9.97
2019-05-11T02:56:21.846Z,9.13
2019-05-11T02:58:52.802Z,9.40
2019-05-11T03:01:26.899Z,9.80
2019-05-11T03:03:57.547Z,9.17
2019-05-11T03:06:28.461Z,9.47
2019-05-11T03:09:01.164Z,9.70
2019-05-11T03:11:55.856Z,9.13
2019-05-11T03:14:22.397Z,9.63
2019-05-11T03:17:11.052Z,9.30
2019-05-11T03:19:44.955Z,8.90
2019-05-11T03:22:16.922Z,9.00
2019-05-11T03:24:48.609Z,9.20
2019-05-11T03:27:21.160Z,9.37
2019-05-11T03:29:51.461Z,9.00
2019-05-11T03:32:24.051Z,8.90
2019-05-11T03:34:54.381Z,9.37
2019-05-11T03:37:25.737Z,9.13
2019-05-11T03:39:56.039Z,8.77
2019-05-11T03:42:26.791Z,8.63
2019-05-11T03:44:57.178Z,9.20
2019-05-11T03:47:28.458Z,8.53
2019-05-11T03:49:58.773Z,9.07
2019-05-11T03:52:29.822Z,8.70
2019-05-11T03:55:03.108Z,9.00
2019-05-11T03:57:36.719Z,8.70
2019-05-11T04:00:09.798Z,8.80
2019-05-11T04:02:45.207Z,8.87
2019-05-11T04:05:15.380Z,8.67
2019-05-11T04:07:45.910Z,9.10
2019-05-11T04:10:19.282Z,8.43
2019-05-11T04:12:53.527Z,8.23
2019-05-11T04:15:25.969Z,8.17
2019-05-11T04:17:58.488Z,8.17
2019-05-11T04:20:32.356Z,8.80
2019-05-11T04:23:03.624Z,8.63
2019-05-11T04:25:34.457Z,8.60
2019-05-11T04:28:07.269Z,8.93
2019-05-11T04:30:41.276Z,8.20
2019-05-11T04:33:12.434Z,8.03
2019-05-11T04:35:44.871Z,8.40
2019-05-11T04:38:16.626Z,8.10
2019-05-11T04:40:49.143Z,8.00
2019-05-11T04:43:21.001Z,8.03
2019-05-11T04:45:51.554Z,8.37
2019-05-11T04:48:24.889Z,7.90
2019-05-11T04:51:02.563Z,7.97
2019-05-11T04:53:35.779Z,8.00
2019-05-11T04:56:09.816Z,7.33
2019-05-11T04:58:44.211Z,7.80
2019-05-11T05:01:17.587Z,7.67
2019-05-11T05:03:56.235Z,7.80
2019-05-11T05:06:25.518Z,7.27
2019-05-11T05:08:58.068Z,7.90
2019-05-11T05:11:30.730Z,7.67
2019-05-11T05:14:01.842Z,6.93
2019-05-11T05:16:34.894Z,7.20
2019-05-11T05:19:06.873Z,7.50
2019-05-11T05:21:38.495Z,7.23
2019-05-11T05:24:14.486Z,7.23
2019-05-11T05:26:46.334Z,7.23
2019-05-11T05:29:17.046Z,7.20
2019-05-11T05:31:47.281Z,7.70
2019-05-11T05:34:21.414Z,7.20
2019-05-11T05:36:51.691Z,7.00
2019-05-11T05:39:22.459Z,7.20
2019-05-11T05:41:57.008Z,7.07
2019-05-11T05:44:28.216Z,7.17
2019-05-11T05:46:58.826Z,6.90
2019-05-11T05:49:29.808Z,7.00
2019-05-11T05:51:59.990Z,6.70
2019-05-11T05:54:31.210Z,7.17
2019-05-11T05:57:01.715Z,6.93
2019-05-11T05:59:32.850Z,6.43
2019-05-11T06:02:04.163Z,6.50
2019-05-11T06:04:34.869Z,6.67
2019-05-11T06:07:07.615Z,6.40
2019-05-11T06:09:38.650Z,6.43
2019-05-11T06:12:08.970Z,6.70
2019-05-11T06:14:39.706Z,6.60
2019-05-11T06:17:10.282Z,6.63
2019-05-11T06:19:42.002Z,6.73
2019-05-11T06:22:12.584Z,6.70
2019-05-11T06:24:45.362Z,6.07
2019-05-11T06:27:15.823Z,6.57
2019-05-11T06:29:46.583Z,6.07
2019-05-11T06:32:22.034Z,6.13
2019-05-11T06:34:52.793Z,6.30
2019-05-11T06:37:23.098Z,6.17
2019-05-11T06:39:56.918Z,6.53
2019-05-11T06:42:29.485Z,6.13
2019-05-11T06:45:00.555Z,6.33
2019-05-11T06:47:35.123Z,6.60
2019-05-11T06:50:06.224Z,5.80
2019-05-11T06:52:37.812Z,5.80
2019-05-11T06:55:08.804Z,6.10
2019-05-11T06:57:41.136Z,6.10
2019-05-11T07:00:12.350Z,6.07
2019-05-11T07:02:43.391Z,6.30
2019-05-11T07:05:19.326Z,5.90
2019-05-11T07:07:53.114Z,5.90
2019-05-11T07:10:23.597Z,5.80
2019-05-11T07:12:54.930Z,6.10
2019-05-11T07:15:28.984Z,5.77
2019-05-11T07:18:03.571Z,6.20
2019-05-11T07:20:49.432Z,6.47
2019-05-11T07:23:08.267Z,6.50
2019-05-11T07:25:41.469Z,5.80
2019-05-11T07:28:16.076Z,6.17
2019-05-11T07:30:47.978Z,6.43
2019-05-11T07:33:21.429Z,6.20
2019-05-11T07:35:54.379Z,6.17
2019-05-11T07:38:24.638Z,6.00
2019-05-11T07:40:55.337Z,6.20
2019-05-11T07:43:28.600Z,6.20
2019-05-11T07:45:58.613Z,5.90
2019-05-11T07:48:29.333Z,6.17
2019-05-11T07:51:01.922Z,6.00
2019-05-11T07:53:32.217Z,6.00
2019-05-11T07:56:04.115Z,5.90
2019-05-11T07:58:38.935Z,5.90
2019-05-11T08:01:12.202Z,5.33
2019-05-11T08:03:42.645Z,6.17
2019-05-11T08:06:15.225Z,6.00
2019-05-11T08:08:50.827Z,6.13
2019-05-11T08:11:30.817Z,5.70
2019-05-11T08:13:58.672Z,5.97
2019-05-11T08:16:29.867Z,5.83
2019-05-11T08:19:06.796Z,6.60
2019-05-11T08:21:36.055Z,8.23
2019-05-11T08:24:08.934Z,8.60
2019-05-11T08:26:39.634Z,9.43
2019-05-11T08:29:15.102Z,8.90
2019-05-11T08:31:45.973Z,8.67
2019-05-11T08:34:18.007Z,9.10
2019-05-11T08:36:48.812Z,10.00
2019-05-11T08:39:19.212Z,8.50
2019-05-11T08:41:50.220Z,9.33
2019-05-11T08:44:24.481Z,9.00
2019-05-11T08:46:59.300Z,9.47
2019-05-11T08:49:30.491Z,9.17
2019-05-11T08:52:01.299Z,8.93
2019-05-11T08:54:38.467Z,9.80
2019-05-11T08:57:10.678Z,9.83
2019-05-11T08:59:43.657Z,9.67
2019-05-11T09:02:18.647Z,10.10
2019-05-11T09:04:51.483Z,9.60
2019-05-11T09:07:32.768Z,9.07
2019-05-11T09:10:03.865Z,10.10
2019-05-11T09:12:34.942Z,11.43
2019-05-11T09:15:08.852Z,10.87
2019-05-11T09:17:40.606Z,9.90
2019-05-11T09:20:12.810Z,10.23
2019-05-11T09:22:44.123Z,10.93
2019-05-11T09:25:14.991Z,10.00
2019-05-11T09:27:48.522Z,10.03
2019-05-11T09:30:19.246Z,10.27
2019-05-11T09:32:49.938Z,10.47
2019-05-11T09:35:23.381Z,9.50
2019-05-11T09:37:54.770Z,11.00
2019-05-11T09:40:24.978Z,10.00
2019-05-11T09:42:58.422Z,11.40
2019-05-11T09:45:27.878Z,13.53
2019-05-11T09:48:01.166Z,13.47
2019-05-11T09:50:38.664Z,9.30
2019-05-11T09:53:11.562Z,9.57
2019-05-11T09:55:48.149Z,9.13
2019-05-11T09:58:20.403Z,9.47
2019-05-11T10:00:51.304Z,9.87
2019-05-11T10:03:23.136Z,9.63
2019-05-11T10:05:54.675Z,9.80
2019-05-11T10:08:25.201Z,9.30
2019-05-11T10:10:57.918Z,9.60
2019-05-11T10:13:29.867Z,9.33
2019-05-11T10:16:10.648Z,9.20
2019-05-11T10:18:43.267Z,9.37
2019-05-11T10:21:14.351Z,9.53
2019-05-11T10:23:45.882Z,8.93
2019-05-11T10:26:18.806Z,9.37
2019-05-11T10:28:51.168Z,9.27
2019-05-11T10:31:22.039Z,9.30
2019-05-11T10:33:52.309Z,9.70
2019-05-11T10:36:23.368Z,10.50
2019-05-11T10:38:58.754Z,10.37
2019-05-11T10:41:29.236Z,10.63
2019-05-11T10:43:59.652Z,10.60
2019-05-11T10:46:30.702Z,11.07
2019-05-11T10:49:01.085Z,11.37
2019-05-11T10:51:32.417Z,10.97
2019-05-11T10:54:04.098Z,10.90
2019-05-11T10:56:35.074Z,10.37
2019-05-11T10:59:07.863Z,10.13
2019-05-11T11:01:40.871Z,10.10
2019-05-11T11:04:15.451Z,9.33
2019-05-11T11:06:48.878Z,9.50
2019-05-11T11:09:22.624Z,9.10
2019-05-11T11:11:58.131Z,9.20
2019-05-11T11:14:31.362Z,9.20
2019-05-11T11:17:04.811Z,9.80
2019-05-11T11:19:39.090Z,9.30
2019-05-11T11:22:35.481Z,9.60
2019-05-11T11:24:48.140Z,9.40
2019-05-11T11:27:25.354Z,10.00
2019-05-11T11:29:58.275Z,9.67
2019-05-11T11:32:29.695Z,9.67
2019-05-11T11:35:00.699Z,9.87
2019-05-11T11:37:31.323Z,9.40
2019-05-11T11:40:03.965Z,9.13
2019-05-11T11:42:34.150Z,9.13
2019-05-11T11:45:08.588Z,9.70
2019-05-11T11:47:38.850Z,9.30
2019-05-11T11:50:12.968Z,9.30
2019-05-11T11:52:45.070Z,9.40
2019-05-11T11:55:18.579Z,8.80
2019-05-11T11:57:50.383Z,9.20
2019-05-11T12:00:22.405Z,8.97
2019-05-11T12:02:55.382Z,8.87
2019-05-11T12:05:29.924Z,8.40
2019-05-11T12:08:00.628Z,8.93
2019-05-11T12:10:34.349Z,8.40
2019-05-11T12:13:08.441Z,8.47
2019-05-11T12:15:38.908Z,8.60
2019-05-11T12:18:13.587Z,7.73
2019-05-11T12:20:48.088Z,8.27
2019-05-11T12:23:18.150Z,7.90
2019-05-11T12:25:52.585Z,8.43
2019-05-11T12:28:27.679Z,8.27
2019-05-11T12:31:00.401Z,8.17
2019-05-11T12:33:30.749Z,7.70
2019-05-11T12:36:01.768Z,8.47
2019-05-11T12:38:32.411Z,8.00
2019-05-11T12:41:03.147Z,9.37
2019-05-11T12:43:33.802Z,9.77
2019-05-11T12:46:05.097Z,9.50
2019-05-11T12:48:38.025Z,8.60
2019-05-11T12:51:10.778Z,8.97
2019-05-11T12:53:43.724Z,8.27
2019-05-11T12:56:21.031Z,8.20
2019-05-11T12:58:51.362Z,8.50
2019-05-11T13:01:22.114Z,8.20
2019-05-11T13:03:58.000Z,8.00
2019-05-11T13:06:31.766Z,7.47
2019-05-11T13:09:02.748Z,7.40
2019-05-11T13:11:37.803Z,7.63
2019-05-11T13:14:09.285Z,7.80
2019-05-11T13:16:44.946Z,7.30
2019-05-11T13:19:22.422Z,6.80
2019-05-11T13:21:53.074Z,7.40
2019-05-11T13:24:23.767Z,7.10
2019-05-11T13:26:59.780Z,7.10
2019-05-11T13:29:29.976Z,6.70
2019-05-11T13:32:02.559Z,7.13
2019-05-11T13:34:33.189Z,6.93
2019-05-11T13:39:57.983Z,6.93
2019-05-11T13:42:32.474Z,7.13
2019-05-11T13:45:04.755Z,6.90
2019-05-11T13:47:51.721Z,6.53
2019-05-11T13:50:13.431Z,6.87
2019-05-11T13:52:50.726Z,6.40
2019-05-11T13:55:24.665Z,6.47
2019-05-11T13:57:57.899Z,6.67
2019-05-11T14:00:29.078Z,6.43
2019-05-11T14:03:01.813Z,6.40
2019-05-11T14:05:33.830Z,6.40
2019-05-11T14:08:04.549Z,6.57
2019-05-11T14:10:38.509Z,6.37
2019-05-11T14:13:12.163Z,6.30
2019-05-11T14:15:42.849Z,6.50
2019-05-11T14:18:13.223Z,6.10
2019-05-11T14:20:44.546Z,6.40
2019-05-11T14:23:18.099Z,6.27
2019-05-11T14:25:50.362Z,6.70
2019-05-11T14:28:21.814Z,6.20
2019-05-11T14:30:54.883Z,6.10
2019-05-11T14:33:27.867Z,6.17
2019-05-11T14:35:58.913Z,6.20
2019-05-11T14:38:31.278Z,5.70
2019-05-11T14:41:02.497Z,5.70
2019-05-11T14:43:38.166Z,5.93
2019-05-11T14:46:09.879Z,5.77
2019-05-11T14:48:40.766Z,5.60
2019-05-11T14:51:12.252Z,5.73
2019-05-11T14:53:48.170Z,5.90
2019-05-11T14:56:23.201Z,5.83
2019-05-11T14:58:54.421Z,5.80
2019-05-11T15:01:25.888Z,5.60
2019-05-11T15:03:56.271Z,5.70
2019-05-11T15:06:32.154Z,5.50
2019-05-11T15:09:07.621Z,5.70
2019-05-11T15:11:38.875Z,5.47
2019-05-11T15:14:09.742Z,5.50
2019-05-11T15:16:40.029Z,5.57
2019-05-11T15:19:18.573Z,5.43
2019-05-11T15:21:51.541Z,5.73
2019-05-11T15:24:25.199Z,5.63
2019-05-11T15:26:57.573Z,5.40
2019-05-11T15:29:30.534Z,6.00
2019-05-11T15:32:04.799Z,6.30
2019-05-11T15:34:38.159Z,6.80
2019-05-11T15:37:09.683Z,6.40
2019-05-11T15:39:42.709Z,6.67
2019-05-11T15:42:17.574Z,6.20
2019-05-11T15:44:48.314Z,5.90
2019-05-11T15:47:23.769Z,5.93
2019-05-11T15:49:57.908Z,5.87
2019-05-11T15:52:32.742Z,6.17
2019-05-11T15:55:04.315Z,6.20
2019-05-11T15:57:34.735Z,5.30
2019-05-11T16:00:08.804Z,5.80
2019-05-11T16:02:41.129Z,5.97
2019-05-11T16:05:11.314Z,5.73
2019-05-11T16:07:41.737Z,5.50
2019-05-11T16:10:12.905Z,5.30
2019-05-11T16:12:43.802Z,5.70
2019-05-11T16:15:14.725Z,5.40
2019-05-11T16:17:48.624Z,5.20
2019-05-11T16:20:18.639Z,5.60
2019-05-11T16:22:49.113Z,5.13
2019-05-11T16:25:23.399Z,5.20
2019-05-11T16:27:53.136Z,5.20
2019-05-11T16:30:25.410Z,4.90
2019-05-11T16:32:59.093Z,5.00
2019-05-11T16:35:29.949Z,5.10
2019-05-11T16:38:00.782Z,5.17
2019-05-11T16:40:31.695Z,4.87
2019-05-11T16:43:02.442Z,5.10
2019-05-11T16:45:33.155Z,4.90
2019-05-11T16:48:03.805Z,5.17
2019-05-11T16:50:38.365Z,5.20
2019-05-11T16:53:13.161Z,4.77
2019-05-11T16:55:44.390Z,5.30
2019-05-11T16:58:19.443Z,4.90
2019-05-11T17:00:49.050Z,5.03
2019-05-11T17:03:20.185Z,5.13
2019-05-11T17:05:51.718Z,4.80
2019-05-11T17:08:34.323Z,4.97
2019-05-11T17:11:08.269Z,4.83
2019-05-11T17:13:38.898Z,5.30
2019-05-11T17:16:18.265Z,5.10
2019-05-11T17:18:52.972Z,4.70
2019-05-11T17:21:23.862Z,4.77
2019-05-11T17:23:59.265Z,4.73
2019-05-11T17:26:30.067Z,4.93
2019-05-11T17:29:02.354Z,4.60
2019-05-11T17:31:33.975Z,4.63
2019-05-11T17:34:08.765Z,4.30
2019-05-11T17:36:38.653Z,4.50
2019-05-11T17:39:10.010Z,4.67
2019-05-11T17:41:40.919Z,4.60
2019-05-11T17:44:11.671Z,4.63
2019-05-11T17:46:42.379Z,4.60
2019-05-11T17:49:13.349Z,4.23
2019-05-11T17:51:43.949Z,4.27
2019-05-11T17:54:14.587Z,4.23
2019-05-11T17:56:45.137Z,4.57
2019-05-11T17:59:19.511Z,4.50
2019-05-11T18:01:52.608Z,4.33
2019-05-11T18:04:23.583Z,4.43
2019-05-11T18:06:58.944Z,4.33
2019-05-11T18:09:32.322Z,4.60
2019-05-11T18:12:09.837Z,4.00
2019-05-11T18:14:43.107Z,4.30
2019-05-11T18:17:17.842Z,4.00
2019-05-11T18:19:48.253Z,4.00
2019-05-11T18:22:21.959Z,4.30
2019-05-11T18:24:54.914Z,4.27
2019-05-11T18:27:27.707Z,4.30
2019-05-11T18:30:00.872Z,4.13
2019-05-11T18:32:31.232Z,4.20
2019-05-11T18:35:04.951Z,4.37
2019-05-11T18:37:38.681Z,4.33
2019-05-11T18:40:09.090Z,3.87
2019-05-11T18:42:41.701Z,4.30
2019-05-11T18:45:12.915Z,4.20
2019-05-11T18:47:43.534Z,4.20
2019-05-11T18:50:29.330Z,4.17
2019-05-11T18:52:49.559Z,4.23
2019-05-11T18:55:20.693Z,4.10
2019-05-11T18:57:51.175Z,4.30
2019-05-11T19:00:27.727Z,4.00
2019-05-11T19:02:59.550Z,3.90
2019-05-11T19:05:34.837Z,4.20
2019-05-11T19:08:06.380Z,4.47
2019-05-11T19:10:38.370Z,4.30
2019-05-11T19:13:09.930Z,4.37
2019-05-11T19:15:40.640Z,4.63
2019-05-11T19:18:14.611Z,4.20
2019-05-11T19:20:49.492Z,4.53
2019-05-11T19:23:20.763Z,4.63
2019-05-11T19:25:54.139Z,4.37
2019-05-11T19:28:28.078Z,4.40
2019-05-11T19:31:02.994Z,4.40
2019-05-11T19:33:35.066Z,4.20
2019-05-11T19:36:07.907Z,4.40
2019-05-11T19:38:38.890Z,4.53
2019-05-11T19:41:09.565Z,4.30
2019-05-11T19:43:42.275Z,4.30
2019-05-11T19:46:15.738Z,4.07
2019-05-11T19:48:47.850Z,4.30
2019-05-11T19:51:18.806Z,4.57
2019-05-11T19:53:52.529Z,4.20
2019-05-11T19:56:28.927Z,4.20
2019-05-11T19:59:01.551Z,4.10
2019-05-11T20:01:34.197Z,4.23
2019-05-11T20:04:08.070Z,4.20
2019-05-11T20:06:38.690Z,4.50
2019-05-11T20:09:11.057Z,4.40
2019-05-11T20:11:41.465Z,4.30
2019-05-11T20:14:13.886Z,4.33
2019-05-11T20:16:47.813Z,4.40
2019-05-11T20:19:22.084Z,4.37
2019-05-11T20:21:52.766Z,4.43
2019-05-11T20:24:25.189Z,4.70
2019-05-11T20:26:56.098Z,4.43
2019-05-11T20:29:27.883Z,4.73
2019-05-11T20:31:58.448Z,4.30
2019-05-11T20:34:29.620Z,4.30
2019-05-11T20:36:59.984Z,4.70
2019-05-11T20:39:33.657Z,4.70
2019-05-11T20:42:08.754Z,4.50
2019-05-11T20:44:40.879Z,4.53
2019-05-11T20:47:11.531Z,4.57
2019-05-11T20:49:44.467Z,4.80
2019-05-11T20:52:17.854Z,4.70
2019-05-11T20:54:51.486Z,4.93
2019-05-11T20:57:23.122Z,4.97
2019-05-11T20:59:54.335Z,4.90
2019-05-11T21:02:24.896Z,5.00
2019-05-11T21:04:58.530Z,5.33
2019-05-11T21:07:33.413Z,5.30
2019-05-11T21:10:08.640Z,5.33
2019-05-11T21:12:41.446Z,5.50
2019-05-11T21:15:12.934Z,5.50
2019-05-11T21:17:50.840Z,5.40
2019-05-11T21:20:21.776Z,5.80
2019-05-11T21:22:52.142Z,5.90
2019-05-11T21:25:23.433Z,6.10
2019-05-11T21:27:54.527Z,6.13
2019-05-11T21:30:26.057Z,6.40
2019-05-11T21:33:03.646Z,6.50
2019-05-11T21:35:35.113Z,6.70
2019-05-11T21:38:05.924Z,6.97
2019-05-11T21:40:40.179Z,7.00
2019-05-11T21:43:11.266Z,6.93
2019-05-11T21:45:43.295Z,7.03
2019-05-11T21:48:15.771Z,7.13
2019-05-11T21:50:46.651Z,7.13
2019-05-11T21:53:18.482Z,7.27
2019-05-11T21:55:49.545Z,7.37
2019-05-11T21:58:20.295Z,7.30
2019-05-11T22:00:51.385Z,7.37
2019-05-11T22:03:28.179Z,8.03
2019-05-11T22:06:00.351Z,8.47
2019-05-11T22:08:33.299Z,8.07
2019-05-11T22:11:08.670Z,8.13
2019-05-11T22:13:39.187Z,8.00
2019-05-11T22:16:09.910Z,8.00
2019-05-11T22:18:40.342Z,8.10
2019-05-11T22:21:18.619Z,7.63
2019-05-11T22:23:50.764Z,7.40
2019-05-11T22:26:21.605Z,8.00
2019-05-11T22:28:52.784Z,8.20
2019-05-11T22:31:23.818Z,8.43
2019-05-11T22:33:58.756Z,8.37
2019-05-11T22:36:38.539Z,8.27
2019-05-11T22:39:12.378Z,8.40
2019-05-11T22:41:48.193Z,8.43
2019-05-11T22:44:19.838Z,8.20
2019-05-11T22:46:50.656Z,9.00
2019-05-11T22:49:23.090Z,8.60
2019-05-11T22:51:59.555Z,8.67
2019-05-11T22:54:32.177Z,8.33
2019-05-11T22:57:11.577Z,8.93
2019-05-11T22:59:43.494Z,8.67
2019-05-11T23:02:19.520Z,9.10
2019-05-11T23:04:50.318Z,9.07
2019-05-11T23:07:23.868Z,8.77
2019-05-11T23:09:54.160Z,8.97
2019-05-11T23:12:25.205Z,8.90
2019-05-11T23:15:20.581Z,9.23
2019-05-11T23:17:53.013Z,9.10
2019-05-11T23:20:23.397Z,9.00
2019-05-11T23:23:01.596Z,9.00
2019-05-11T23:25:34.789Z,9.47
2019-05-11T23:28:10.042Z,9.23
2019-05-11T23:30:41.338Z,8.70
2019-05-11T23:33:12.129Z,9.17
2019-05-11T23:35:43.349Z,9.60
2019-05-11T23:38:14.416Z,9.60
2019-05-11T23:40:48.647Z,9.70
2019-05-11T23:43:25.090Z,10.20
2019-05-11T23:45:57.745Z,9.30
2019-05-11T23:48:30.354Z,10.00
2019-05-11T23:51:03.653Z,9.60
2019-05-11T23:53:38.909Z,9.53
2019-05-11T23:56:10.418Z,9.87
2019-05-11T23:58:41.690Z,10.00
